createdAt,value
2019-06-10T00:00:16.922Z,21.28
2019-06-10T00:01:16.844Z,21.34
2019-06-10T00:02:16.769Z,21.40
2019-06-10T00:03:16.693Z,21.32
2019-06-10T00:04:16.605Z,21.34
2019-06-10T00:05:16.530Z,21.25
2019-06-10T00:06:16.455Z,21.24
2019-06-10T00:07:16.382Z,21.19
2019-06-10T00:08:16.305Z,21.22
2019-06-10T00:09:16.231Z,21.22
2019-06-10T00:10:16.156Z,21.25
2019-06-10T00:11:16.069Z,21.29
2019-06-10T00:12:15.994Z,21.31
2019-06-10T00:13:15.920Z,21.12
2019-06-10T00:14:15.845Z,20.92
2019-06-10T00:15:15.770Z,20.80
2019-06-10T00:16:15.695Z,20.72
2019-06-10T00:17:15.608Z,20.61
2019-06-10T00:18:34.197Z,20.54
2019-06-10T00:19:15.457Z,20.51
2019-06-10T00:20:15.383Z,20.48
2019-06-10T00:21:15.307Z,20.43
2019-06-10T00:22:15.232Z,20.38
2019-06-10T00:23:15.171Z,20.26
2019-06-10T00:24:15.071Z,20.35
2019-06-10T00:25:14.995Z,20.31
2019-06-10T00:26:14.921Z,20.31
2019-06-10T00:27:14.846Z,20.31
2019-06-10T00:28:14.760Z,20.16
2019-06-10T00:29:14.684Z,20.16
2019-06-10T00:30:14.610Z,20.02
2019-06-10T00:31:14.533Z,20.03
2019-06-10T00:32:14.459Z,20.16
2019-06-10T00:33:14.385Z,20.03
2019-06-10T00:34:14.297Z,20.03
2019-06-10T00:35:14.223Z,19.99
2019-06-10T00:36:14.150Z,19.99
2019-06-10T00:37:14.874Z,19.96
2019-06-10T00:38:14.572Z,19.98
2019-06-10T00:39:13.940Z,19.96
2019-06-10T00:40:14.361Z,20.01
2019-06-10T00:41:14.223Z,19.94
2019-06-10T00:42:15.252Z,19.84
2019-06-10T00:43:13.736Z,19.84
2019-06-10T00:44:13.523Z,19.84
2019-06-10T00:45:17.772Z,19.94
2019-06-10T00:46:13.466Z,19.91
2019-06-10T00:47:15.094Z,19.78
2019-06-10T00:48:24.265Z,19.80
2019-06-10T00:49:14.702Z,19.77
2019-06-10T00:50:14.737Z,19.77
2019-06-10T00:51:13.296Z,19.84
2019-06-10T00:52:14.037Z,19.78
2019-06-10T00:53:14.511Z,19.74
2019-06-10T00:54:15.403Z,19.80
2019-06-10T00:55:13.854Z,19.80
2019-06-10T00:56:14.332Z,19.83
2019-06-10T00:57:13.640Z,19.94
2019-06-10T00:58:14.032Z,19.87
2019-06-10T00:59:14.773Z,19.86
2019-06-10T01:00:20.463Z,19.95
2019-06-10T01:01:14.412Z,19.96
2019-06-10T01:02:14.050Z,19.95
2019-06-10T01:03:14.965Z,20.02
2019-06-10T01:04:15.968Z,19.91
2019-06-10T01:05:12.548Z,19.91
2019-06-10T01:06:14.916Z,19.86
2019-06-10T01:07:14.281Z,19.87
2019-06-10T01:08:13.501Z,19.88
2019-06-10T01:09:13.210Z,19.76
2019-06-10T01:10:12.840Z,19.68
2019-06-10T01:11:20.283Z,19.77
2019-06-10T01:12:13.231Z,19.58
2019-06-10T01:13:13.177Z,19.58
2019-06-10T01:14:12.563Z,19.50
2019-06-10T01:15:13.407Z,19.55
2019-06-10T01:16:12.566Z,19.39
2019-06-10T01:17:12.504Z,19.43
2019-06-10T01:18:30.319Z,19.44
2019-06-10T01:19:12.762Z,19.28
2019-06-10T01:20:12.837Z,19.28
2019-06-10T01:21:12.115Z,19.25
2019-06-10T01:22:11.178Z,19.26
2019-06-10T01:23:13.902Z,19.36
2019-06-10T01:24:12.061Z,19.31
2019-06-10T01:25:12.366Z,19.25
2019-06-10T01:26:12.899Z,19.31
2019-06-10T01:27:11.721Z,19.29
2019-06-10T01:28:12.575Z,19.32
2019-06-10T01:29:12.297Z,19.22
2019-06-10T01:30:17.936Z,19.36
2019-06-10T01:31:13.121Z,19.32
2019-06-10T01:32:11.841Z,19.44
2019-06-10T01:33:12.359Z,19.29
2019-06-10T01:34:11.737Z,19.40
2019-06-10T01:35:11.530Z,19.40
2019-06-10T01:36:12.574Z,19.44
2019-06-10T01:37:11.360Z,19.40
2019-06-10T01:38:10.573Z,19.47
2019-06-10T01:39:11.655Z,19.40
2019-06-10T01:40:12.893Z,19.44
2019-06-10T01:41:11.087Z,19.48
2019-06-10T01:42:10.975Z,19.54
2019-06-10T01:43:08.954Z,19.58
2019-06-10T01:44:11.172Z,19.56
2019-06-10T01:45:11.085Z,19.55
2019-06-10T01:46:10.855Z,19.56
2019-06-10T01:47:08.726Z,19.51
2019-06-10T01:48:08.836Z,19.56
2019-06-10T01:49:09.522Z,19.58
2019-06-10T01:50:09.597Z,19.58
2019-06-10T01:51:09.039Z,19.61
2019-06-10T01:52:09.309Z,19.58
2019-06-10T01:53:09.339Z,19.54
2019-06-10T01:54:08.326Z,19.55
2019-06-10T01:55:08.030Z,19.61
2019-06-10T01:56:07.942Z,19.62
2019-06-10T01:57:07.867Z,19.71
2019-06-10T01:58:07.839Z,19.76
2019-06-10T01:59:08.004Z,19.69
2019-06-10T02:00:10.996Z,19.76
2019-06-10T02:01:08.425Z,19.66
2019-06-10T02:02:07.485Z,19.76
2019-06-10T02:03:08.484Z,19.80
2019-06-10T02:04:08.194Z,19.76
2019-06-10T02:05:08.382Z,19.76
2019-06-10T02:06:08.687Z,19.77
2019-06-10T02:07:07.094Z,19.76
2019-06-10T02:08:07.020Z,19.76
2019-06-10T02:09:06.946Z,19.76
2019-06-10T02:10:06.871Z,19.77
2019-06-10T02:11:06.787Z,19.77
2019-06-10T02:12:06.709Z,19.83
2019-06-10T02:13:06.632Z,19.87
2019-06-10T02:14:06.557Z,19.77
2019-06-10T02:15:06.482Z,19.77
2019-06-10T02:16:06.394Z,19.80
2019-06-10T02:17:06.321Z,19.91
2019-06-10T02:18:06.246Z,19.81
2019-06-10T02:19:06.169Z,19.94
2019-06-10T02:20:06.094Z,19.87
2019-06-10T02:21:06.008Z,19.81
2019-06-10T02:22:05.934Z,19.84
2019-06-10T02:23:05.858Z,19.96
2019-06-10T02:24:05.783Z,19.95
2019-06-10T02:25:05.708Z,19.96
2019-06-10T02:26:05.621Z,19.98
2019-06-10T02:27:05.545Z,19.98
2019-06-10T02:28:05.472Z,20.02
2019-06-10T02:29:05.412Z,19.96
2019-06-10T02:30:14.973Z,19.98
2019-06-10T02:31:05.246Z,19.95
2019-06-10T02:32:05.335Z,20.06
2019-06-10T02:33:05.085Z,20.02
2019-06-10T02:34:05.016Z,20.06
2019-06-10T02:35:13.707Z,20.02
2019-06-10T02:36:05.039Z,19.98
2019-06-10T02:37:05.003Z,19.84
2019-06-10T02:38:04.699Z,19.84
2019-06-10T02:39:04.806Z,19.58
2019-06-10T02:40:04.822Z,19.36
2019-06-10T02:41:05.005Z,18.42
2019-06-10T02:42:04.747Z,17.48
2019-06-10T02:43:04.313Z,16.96
2019-06-10T02:44:04.562Z,16.58
2019-06-10T02:45:04.240Z,16.28
2019-06-10T02:46:04.609Z,16.09
2019-06-10T02:47:03.999Z,15.87
2019-06-10T02:48:04.357Z,15.69
2019-06-10T02:49:20.949Z,15.69
2019-06-10T02:50:08.297Z,15.67
2019-06-10T02:51:04.147Z,15.57
2019-06-10T02:52:03.713Z,15.57
2019-06-10T02:53:04.016Z,15.64
2019-06-10T02:54:04.761Z,15.56
2019-06-10T02:55:04.272Z,15.44
2019-06-10T02:56:04.244Z,15.46
2019-06-10T02:57:04.386Z,15.46
2019-06-10T02:58:03.946Z,15.53
2019-06-10T02:59:03.455Z,15.62
2019-06-10T03:00:06.420Z,15.64
2019-06-10T03:01:04.187Z,15.62
2019-06-10T03:02:03.103Z,15.60
2019-06-10T03:03:03.900Z,15.60
2019-06-10T03:04:04.556Z,15.57
2019-06-10T03:05:04.476Z,15.60
2019-06-10T03:06:07.500Z,15.64
2019-06-10T03:07:03.412Z,15.72
2019-06-10T03:08:03.850Z,15.74
2019-06-10T03:09:03.714Z,15.67
2019-06-10T03:10:04.611Z,15.64
2019-06-10T03:11:03.803Z,15.54
2019-06-10T03:12:04.777Z,15.54
2019-06-10T03:13:02.405Z,15.46
2019-06-10T03:14:02.638Z,15.41
2019-06-10T03:15:02.161Z,15.34
2019-06-10T03:16:02.766Z,15.32
2019-06-10T03:17:03.165Z,15.29
2019-06-10T03:18:02.387Z,15.34
2019-06-10T03:19:02.996Z,15.35
2019-06-10T03:20:02.302Z,15.43
2019-06-10T03:21:02.594Z,15.47
2019-06-10T03:22:02.726Z,15.57
2019-06-10T03:23:02.917Z,15.54
2019-06-10T03:24:02.712Z,15.64
2019-06-10T03:25:02.792Z,15.59
2019-06-10T03:26:03.695Z,15.60
2019-06-10T03:27:02.605Z,15.76
2019-06-10T03:28:02.949Z,15.80
2019-06-10T03:29:02.526Z,15.84
2019-06-10T03:30:03.098Z,15.86
2019-06-10T03:31:04.932Z,15.89
2019-06-10T03:32:04.555Z,15.83
2019-06-10T03:33:00.354Z,15.80
2019-06-10T03:34:04.556Z,15.84
2019-06-10T03:35:00.207Z,15.83
2019-06-10T03:36:00.116Z,15.97
2019-06-10T03:37:02.329Z,16.04
2019-06-10T03:37:59.967Z,16.00
2019-06-10T03:39:02.420Z,16.11
2019-06-10T03:40:02.087Z,16.02
2019-06-10T03:40:59.727Z,16.01
2019-06-10T03:42:02.121Z,15.96
2019-06-10T03:42:59.567Z,16.07
2019-06-10T03:43:59.479Z,16.04
2019-06-10T03:44:59.403Z,16.08
2019-06-10T03:45:59.330Z,16.04
2019-06-10T03:46:59.245Z,16.05
2019-06-10T03:47:59.166Z,16.00
2019-06-10T03:48:59.094Z,16.04
2019-06-10T03:49:59.004Z,16.04
2019-06-10T03:50:58.928Z,16.01
2019-06-10T03:51:58.855Z,16.00
2019-06-10T03:53:01.033Z,15.94
2019-06-10T03:54:43.083Z,15.87
2019-06-10T03:55:42.386Z,15.80
2019-06-10T03:56:42.739Z,15.76
2019-06-10T03:57:42.357Z,15.78
2019-06-10T03:59:27.776Z,15.74
2019-06-10T04:00:27.620Z,15.93
2019-06-10T04:01:25.020Z,16.00
2019-06-10T04:02:23.858Z,16.02
2019-06-10T04:03:24.346Z,16.04
2019-06-10T04:04:24.010Z,16.04
2019-06-10T04:05:23.876Z,15.96
2019-06-10T04:06:24.199Z,15.93
2019-06-10T04:07:27.422Z,16.05
2019-06-10T04:08:23.599Z,15.96
2019-06-10T04:09:23.618Z,16.12
2019-06-10T04:10:24.412Z,16.12
2019-06-10T04:11:24.026Z,16.09
2019-06-10T04:12:23.862Z,16.04
2019-06-10T04:13:23.975Z,15.87
2019-06-10T04:14:22.443Z,15.83
2019-06-10T04:15:24.775Z,15.71
2019-06-10T04:16:22.720Z,15.75
2019-06-10T04:17:23.543Z,15.75
2019-06-10T04:18:22.512Z,15.83
2019-06-10T04:19:22.704Z,15.93
2019-06-10T04:20:24.650Z,15.94
2019-06-10T04:21:22.727Z,15.87
2019-06-10T04:22:23.525Z,15.87
2019-06-10T04:23:22.717Z,15.92
2019-06-10T04:24:22.699Z,15.93
2019-06-10T04:25:23.161Z,15.87
2019-06-10T04:26:20.467Z,15.84
2019-06-10T04:27:22.313Z,15.89
2019-06-10T04:28:20.308Z,15.93
2019-06-10T04:29:22.578Z,15.84
2019-06-10T04:30:20.182Z,15.80
2019-06-10T04:31:21.283Z,15.75
2019-06-10T04:32:20.253Z,15.69
2019-06-10T04:33:20.897Z,15.74
2019-06-10T04:34:20.471Z,15.75
2019-06-10T04:35:20.988Z,15.74
2019-06-10T04:36:21.020Z,15.82
2019-06-10T04:37:20.360Z,15.87
2019-06-10T04:38:20.959Z,15.75
2019-06-10T04:39:20.415Z,15.65
2019-06-10T04:40:20.347Z,15.67
2019-06-10T04:41:20.368Z,15.67
2019-06-10T04:42:20.313Z,15.75
2019-06-10T04:43:20.325Z,15.74
2019-06-10T04:44:19.034Z,15.86
2019-06-10T04:45:18.947Z,16.02
2019-06-10T04:46:18.875Z,16.12
2019-06-10T04:47:18.786Z,16.07
2019-06-10T04:48:18.723Z,16.12
2019-06-10T04:49:18.738Z,16.14
2019-06-10T04:50:24.811Z,16.23
2019-06-10T04:51:18.707Z,16.23
2019-06-10T04:52:18.655Z,16.15
2019-06-10T04:53:18.704Z,16.12
2019-06-10T04:54:18.671Z,16.09
2019-06-10T04:55:18.822Z,16.08
2019-06-10T04:56:18.074Z,16.02
2019-06-10T04:57:18.803Z,16.05
2019-06-10T04:58:19.246Z,16.00
2019-06-10T04:59:18.782Z,16.00
2019-06-10T05:00:19.057Z,16.08
2019-06-10T05:01:18.821Z,16.07
2019-06-10T05:02:19.327Z,16.11
2019-06-10T05:03:18.696Z,16.20
2019-06-10T05:04:17.450Z,16.15
2019-06-10T05:05:17.362Z,16.25
2019-06-10T05:06:17.274Z,16.38
2019-06-10T05:07:17.211Z,16.33
2019-06-10T05:08:17.124Z,16.46
2019-06-10T05:09:17.036Z,16.45
2019-06-10T05:10:16.962Z,16.42
2019-06-10T05:11:16.887Z,16.46
2019-06-10T05:12:16.800Z,16.28
2019-06-10T05:13:16.725Z,16.02
2019-06-10T05:14:16.639Z,16.00
2019-06-10T05:15:16.562Z,15.96
2019-06-10T05:16:16.508Z,15.97
2019-06-10T05:17:16.402Z,16.05
2019-06-10T05:18:16.330Z,15.94
2019-06-10T05:19:16.251Z,16.05
2019-06-10T05:20:16.163Z,16.01
2019-06-10T05:21:16.101Z,16.07
2019-06-10T05:22:16.014Z,16.17
2019-06-10T05:23:15.933Z,16.25
2019-06-10T05:24:15.852Z,16.33
2019-06-10T05:25:15.765Z,16.41
2019-06-10T05:26:15.688Z,16.49
2019-06-10T05:27:15.614Z,16.31
2019-06-10T05:28:15.529Z,16.49
2019-06-10T05:29:15.452Z,16.28
2019-06-10T05:30:15.381Z,16.24
2019-06-10T05:31:15.290Z,16.20
2019-06-10T05:32:15.218Z,16.24
2019-06-10T05:33:15.139Z,16.23
2019-06-10T05:34:15.053Z,16.38
2019-06-10T05:35:14.977Z,16.45
2019-06-10T05:36:14.904Z,16.46
2019-06-10T05:37:14.814Z,16.63
2019-06-10T05:38:14.740Z,16.57
2019-06-10T05:39:14.665Z,16.63
2019-06-10T05:40:14.578Z,16.56
2019-06-10T05:41:14.504Z,16.48
2019-06-10T05:42:14.435Z,16.43
2019-06-10T05:43:14.341Z,16.41
2019-06-10T05:44:14.265Z,16.49
2019-06-10T05:45:14.205Z,16.57
2019-06-10T05:46:14.103Z,16.63
2019-06-10T05:47:14.033Z,16.68
2019-06-10T05:48:16.575Z,16.73
2019-06-10T05:49:13.871Z,16.79
2019-06-10T05:50:13.804Z,16.86
2019-06-10T05:51:13.716Z,16.96
2019-06-10T05:52:13.631Z,17.04
2019-06-10T05:53:13.555Z,17.01
2019-06-10T05:54:13.480Z,17.00
2019-06-10T05:55:13.392Z,17.15
2019-06-10T05:56:13.317Z,17.23
2019-06-10T05:57:13.243Z,17.33
2019-06-10T05:58:13.157Z,17.30
2019-06-10T05:59:13.086Z,17.30
2019-06-10T06:00:14.972Z,17.21
2019-06-10T06:01:13.363Z,17.25
2019-06-10T06:02:12.919Z,17.14
2019-06-10T06:03:12.774Z,17.18
2019-06-10T06:04:12.883Z,17.19
2019-06-10T06:05:12.798Z,17.21
2019-06-10T06:06:12.719Z,17.28
2019-06-10T06:07:12.889Z,17.31
2019-06-10T06:08:12.533Z,17.31
2019-06-10T06:09:12.966Z,17.41
2019-06-10T06:10:13.012Z,17.40
2019-06-10T06:11:12.717Z,17.43
2019-06-10T06:12:14.158Z,17.48
2019-06-10T06:13:12.681Z,17.44
2019-06-10T06:14:13.264Z,17.38
2019-06-10T06:15:12.941Z,17.36
2019-06-10T06:16:12.664Z,17.56
2019-06-10T06:17:12.710Z,17.68
2019-06-10T06:18:14.007Z,17.64
2019-06-10T06:19:12.549Z,17.77
2019-06-10T06:20:13.293Z,17.78
2019-06-10T06:21:22.330Z,17.87
2019-06-10T06:22:12.988Z,17.78
2019-06-10T06:23:12.263Z,17.63
2019-06-10T06:24:12.884Z,17.62
2019-06-10T06:25:14.667Z,17.58
2019-06-10T06:26:15.873Z,17.66
2019-06-10T06:27:12.947Z,17.75
2019-06-10T06:28:12.927Z,17.77
2019-06-10T06:29:12.818Z,17.93
2019-06-10T06:30:13.728Z,17.93
2019-06-10T06:31:12.480Z,17.93
2019-06-10T06:32:13.055Z,17.96
2019-06-10T06:33:13.340Z,18.10
2019-06-10T06:34:10.333Z,18.26
2019-06-10T06:35:12.502Z,18.27
2019-06-10T06:36:12.450Z,18.41
2019-06-10T06:37:12.601Z,18.39
2019-06-10T06:38:10.021Z,18.32
2019-06-10T06:39:09.947Z,18.18
2019-06-10T06:40:09.872Z,18.21
2019-06-10T06:41:09.785Z,18.17
2019-06-10T06:42:09.709Z,18.20
2019-06-10T06:43:11.950Z,18.21
2019-06-10T06:44:09.547Z,18.21
2019-06-10T06:45:09.472Z,18.18
2019-06-10T06:46:09.398Z,18.23
2019-06-10T06:47:09.321Z,18.10
2019-06-10T06:48:09.247Z,18.05
2019-06-10T06:49:09.161Z,17.99
2019-06-10T06:50:09.094Z,18.02
2019-06-10T06:51:09.055Z,18.02
2019-06-10T06:52:08.934Z,17.99
2019-06-10T06:53:21.104Z,17.90
2019-06-10T06:54:08.772Z,17.97
2019-06-10T06:55:08.710Z,18.07
2019-06-10T06:56:08.622Z,18.20
2019-06-10T06:57:08.536Z,18.23
2019-06-10T06:58:08.462Z,18.20
2019-06-10T06:59:08.386Z,18.26
2019-06-10T07:00:33.857Z,18.37
2019-06-10T07:01:11.026Z,18.45
2019-06-10T07:02:08.153Z,18.51
2019-06-10T07:03:08.073Z,18.66
2019-06-10T07:04:07.998Z,18.66
2019-06-10T07:05:07.917Z,18.67
2019-06-10T07:06:07.841Z,18.81
2019-06-10T07:07:07.763Z,18.92
2019-06-10T07:08:07.686Z,19.07
2019-06-10T07:09:08.255Z,19.16
2019-06-10T07:10:07.524Z,19.32
2019-06-10T07:11:07.452Z,19.21
2019-06-10T07:12:07.389Z,19.16
2019-06-10T07:13:07.299Z,19.26
2019-06-10T07:14:09.995Z,19.23
2019-06-10T07:15:07.138Z,19.29
2019-06-10T07:16:07.062Z,19.33
2019-06-10T07:17:06.987Z,19.13
2019-06-10T07:18:06.914Z,19.18
2019-06-10T07:19:06.825Z,19.21
2019-06-10T07:20:06.750Z,19.21
2019-06-10T07:21:06.674Z,19.25
2019-06-10T07:22:12.467Z,19.18
2019-06-10T07:23:06.539Z,19.25
2019-06-10T07:24:06.439Z,19.23
2019-06-10T07:25:06.735Z,19.18
2019-06-10T07:26:06.295Z,19.25
2019-06-10T07:27:06.217Z,19.21
2019-06-10T07:28:06.138Z,19.25
2019-06-10T07:29:06.052Z,19.19
2019-06-10T07:30:11.729Z,19.23
2019-06-10T07:31:19.904Z,19.32
2019-06-10T07:32:05.839Z,19.21
2019-06-10T07:33:05.751Z,19.11
2019-06-10T07:34:05.676Z,19.08
2019-06-10T07:35:05.590Z,19.22
2019-06-10T07:36:05.523Z,19.25
2019-06-10T07:37:05.439Z,19.28
2019-06-10T07:38:05.367Z,19.29
2019-06-10T07:39:05.289Z,19.29
2019-06-10T07:40:05.203Z,19.14
2019-06-10T07:41:05.128Z,19.29
2019-06-10T07:42:05.052Z,19.33
2019-06-10T07:43:04.977Z,19.32
2019-06-10T07:44:04.903Z,19.36
2019-06-10T07:45:04.830Z,19.26
2019-06-10T07:46:04.741Z,19.33
2019-06-10T07:47:04.666Z,19.39
2019-06-10T07:48:04.592Z,19.25
2019-06-10T07:49:04.516Z,19.31
2019-06-10T07:50:04.440Z,19.43
2019-06-10T07:51:04.365Z,19.59
2019-06-10T07:52:15.160Z,19.63
2019-06-10T07:53:04.203Z,19.61
2019-06-10T07:54:04.128Z,19.59
2019-06-10T07:55:04.066Z,19.71
2019-06-10T07:56:03.978Z,19.77
2019-06-10T07:57:03.895Z,19.71
2019-06-10T07:58:03.817Z,19.78
2019-06-10T07:59:04.027Z,19.94
2019-06-10T08:00:03.667Z,19.91
2019-06-10T08:01:03.595Z,20.08
2019-06-10T08:02:03.518Z,20.11
2019-06-10T08:03:03.432Z,20.17
2019-06-10T08:04:03.354Z,20.29
2019-06-10T08:05:03.650Z,20.41
2019-06-10T08:06:03.431Z,20.50
2019-06-10T08:07:03.429Z,20.77
2019-06-10T08:08:03.065Z,20.99
2019-06-10T08:09:02.980Z,21.12
2019-06-10T08:10:03.034Z,21.10
2019-06-10T08:11:03.497Z,21.13
2019-06-10T08:12:05.818Z,21.31
2019-06-10T08:13:02.981Z,21.38
2019-06-10T08:14:04.652Z,21.28
2019-06-10T08:15:02.836Z,21.27
2019-06-10T08:16:02.928Z,21.28
2019-06-10T08:17:03.098Z,21.38
2019-06-10T08:18:04.351Z,21.56
2019-06-10T08:19:30.269Z,21.62
2019-06-10T08:20:02.468Z,21.92
2019-06-10T08:21:03.186Z,22.12
2019-06-10T08:22:02.967Z,22.31
2019-06-10T08:23:02.213Z,22.43
2019-06-10T08:24:03.474Z,22.31
2019-06-10T08:25:04.820Z,22.31
2019-06-10T08:26:03.511Z,22.27
2019-06-10T08:27:02.735Z,22.10
2019-06-10T08:28:03.033Z,22.24
2019-06-10T08:29:04.146Z,22.22
2019-06-10T08:30:15.489Z,22.10
2019-06-10T08:31:03.396Z,21.99
2019-06-10T08:32:03.303Z,22.05
2019-06-10T08:33:03.354Z,21.94
2019-06-10T08:34:02.966Z,21.96
2019-06-10T08:35:02.772Z,22.00
2019-06-10T08:36:03.673Z,22.35
2019-06-10T08:37:04.378Z,22.42
2019-06-10T08:38:02.471Z,22.57
2019-06-10T08:39:03.023Z,22.76
2019-06-10T08:40:00.633Z,22.82
2019-06-10T08:41:02.855Z,22.92
2019-06-10T08:42:02.983Z,23.01
2019-06-10T08:43:00.408Z,23.20
2019-06-10T08:44:02.231Z,23.20
2019-06-10T08:45:03.007Z,23.25
2019-06-10T08:46:02.332Z,23.33
2019-06-10T08:47:00.108Z,23.32
2019-06-10T08:48:02.508Z,23.31
2019-06-10T08:48:59.958Z,23.27
2019-06-10T08:50:02.443Z,23.32
2019-06-10T08:50:59.833Z,23.39
2019-06-10T08:52:02.486Z,23.33
2019-06-10T08:53:10.347Z,23.40
2019-06-10T08:54:02.132Z,23.19
2019-06-10T08:54:59.509Z,23.17
2019-06-10T08:55:59.434Z,23.20
2019-06-10T08:56:59.361Z,23.31
2019-06-10T08:57:59.288Z,23.33
2019-06-10T08:58:59.222Z,23.32
2019-06-10T08:59:59.135Z,23.33
2019-06-10T09:00:59.072Z,23.47
2019-06-10T09:01:58.987Z,23.57
2019-06-10T09:02:58.923Z,23.46
2019-06-10T09:03:58.849Z,23.50
2019-06-10T09:04:58.774Z,23.31
2019-06-10T09:05:58.717Z,23.35
2019-06-10T09:06:58.624Z,23.25
2019-06-10T09:07:58.549Z,23.31
2019-06-10T09:08:58.476Z,23.20
2019-06-10T09:09:58.402Z,23.42
2019-06-10T09:10:58.325Z,23.60
2019-06-10T09:11:58.249Z,23.69
2019-06-10T09:12:58.174Z,23.83
2019-06-10T09:13:58.102Z,23.93
2019-06-10T09:14:58.025Z,24.08
2019-06-10T09:16:10.885Z,24.05
2019-06-10T09:16:57.886Z,24.09
2019-06-10T09:17:57.811Z,23.95
2019-06-10T09:18:57.736Z,23.88
2019-06-10T09:19:57.677Z,23.90
2019-06-10T09:20:57.587Z,23.79
2019-06-10T09:21:57.566Z,23.94
2019-06-10T09:23:14.997Z,24.12
2019-06-10T09:24:00.008Z,24.34
2019-06-10T09:24:57.288Z,24.49
2019-06-10T09:25:57.778Z,24.69
2019-06-10T09:26:57.141Z,24.88
2019-06-10T09:27:57.076Z,24.90
2019-06-10T09:28:57.004Z,24.95
2019-06-10T09:29:56.926Z,24.95
2019-06-10T09:30:59.143Z,24.98
2019-06-10T09:31:56.777Z,25.25
2019-06-10T09:32:58.725Z,25.08
2019-06-10T09:33:57.166Z,24.71
2019-06-10T09:34:57.667Z,24.81
2019-06-10T09:35:56.501Z,24.73
2019-06-10T09:36:56.991Z,24.61
2019-06-10T09:37:56.340Z,24.90
2019-06-10T09:38:56.269Z,25.32
2019-06-10T09:39:59.556Z,25.83
2019-06-10T09:41:01.849Z,26.12
2019-06-10T09:42:01.451Z,26.44
2019-06-10T09:42:55.980Z,26.12
2019-06-10T09:43:56.877Z,26.30
2019-06-10T09:44:55.922Z,26.75
2019-06-10T09:45:56.601Z,27.09
2019-06-10T09:46:56.050Z,27.00
2019-06-10T09:47:59.894Z,26.99
2019-06-10T09:48:55.911Z,26.92
2019-06-10T09:49:55.738Z,27.12
2019-06-10T09:50:58.541Z,27.29
2019-06-10T09:51:57.499Z,27.34
2019-06-10T09:52:57.021Z,27.36
2019-06-10T09:54:03.688Z,27.81
2019-06-10T09:54:56.789Z,28.19
2019-06-10T09:55:55.596Z,28.43
2019-06-10T09:56:54.990Z,28.07
2019-06-10T09:57:59.789Z,28.40
2019-06-10T09:58:55.420Z,28.56
2019-06-10T09:59:56.339Z,28.24
2019-06-10T10:00:57.885Z,27.21
2019-06-10T10:02:00.095Z,26.54
2019-06-10T10:02:56.160Z,26.82
2019-06-10T10:03:59.734Z,26.80
2019-06-10T10:04:58.500Z,27.22
2019-06-10T10:06:07.357Z,27.69
2019-06-10T10:06:57.199Z,27.70
2019-06-10T10:07:57.288Z,27.46
2019-06-10T10:08:58.298Z,27.92
2019-06-10T10:09:57.000Z,27.74
2019-06-10T10:10:58.622Z,27.69
2019-06-10T10:11:55.905Z,27.72
2019-06-10T10:12:55.797Z,27.84
2019-06-10T10:13:53.820Z,27.75
2019-06-10T10:14:56.218Z,27.72
2019-06-10T10:15:54.372Z,27.50
2019-06-10T10:16:59.171Z,26.75
2019-06-10T10:17:56.282Z,26.51
2019-06-10T10:19:00.298Z,26.60
2019-06-10T10:19:56.778Z,26.09
2019-06-10T10:20:58.684Z,26.07
2019-06-10T10:21:58.187Z,26.39
2019-06-10T10:22:55.141Z,26.76
2019-06-10T10:24:06.229Z,26.69
2019-06-10T10:24:56.679Z,26.72
2019-06-10T10:25:57.013Z,26.75
2019-06-10T10:26:57.367Z,26.84
2019-06-10T10:27:57.261Z,26.88
2019-06-10T10:28:57.042Z,27.03
2019-06-10T10:29:57.012Z,26.91
2019-06-10T10:30:57.095Z,27.02
2019-06-10T10:31:53.793Z,27.04
2019-06-10T10:32:53.948Z,26.45
2019-06-10T10:33:52.690Z,26.57
2019-06-10T10:34:56.153Z,26.39
2019-06-10T10:35:52.669Z,26.35
2019-06-10T10:36:56.740Z,26.23
2019-06-10T10:37:54.251Z,26.40
2019-06-10T10:38:53.417Z,26.57
2019-06-10T10:39:54.464Z,26.55
2019-06-10T10:40:56.464Z,26.29
2019-06-10T10:41:55.006Z,26.21
2019-06-10T10:42:59.191Z,26.12
2019-06-10T10:43:56.567Z,26.12
2019-06-10T10:44:58.388Z,26.10
2019-06-10T10:45:54.568Z,26.07
2019-06-10T10:46:53.775Z,26.05
2019-06-10T10:47:52.562Z,25.82
2019-06-10T10:48:53.368Z,25.70
2019-06-10T10:49:55.522Z,25.72
2019-06-10T10:50:54.543Z,25.82
2019-06-10T10:51:51.204Z,25.77
2019-06-10T10:52:52.363Z,25.82
2019-06-10T10:54:15.402Z,25.72
2019-06-10T10:54:51.890Z,25.70
2019-06-10T10:55:51.866Z,25.70
2019-06-10T10:56:55.149Z,25.83
2019-06-10T10:57:52.855Z,25.85
2019-06-10T10:58:54.866Z,25.88
2019-06-10T10:59:54.197Z,25.91
2019-06-10T11:00:54.266Z,25.87
2019-06-10T11:01:51.496Z,25.82
2019-06-10T11:02:51.463Z,25.83
2019-06-10T11:03:51.423Z,25.99
2019-06-10T11:04:53.332Z,26.10
2019-06-10T11:05:52.339Z,26.12
2019-06-10T11:06:50.073Z,26.25
2019-06-10T11:07:50.000Z,26.39
2019-06-10T11:08:49.988Z,26.39
2019-06-10T11:09:50.337Z,26.10
2019-06-10T11:10:52.063Z,26.05
2019-06-10T11:11:52.231Z,26.07
2019-06-10T11:12:49.649Z,26.18
2019-06-10T11:13:49.573Z,26.05
2019-06-10T11:14:49.499Z,26.18
2019-06-10T11:15:49.424Z,26.36
2019-06-10T11:16:49.473Z,26.36
2019-06-10T11:17:49.541Z,26.44
2019-06-10T11:18:49.347Z,26.37
2019-06-10T11:19:49.307Z,26.36
2019-06-10T11:20:49.906Z,26.62
2019-06-10T11:21:49.550Z,26.72
2019-06-10T11:22:49.606Z,26.70
2019-06-10T11:23:50.030Z,26.77
2019-06-10T11:24:49.315Z,26.87
2019-06-10T11:25:49.823Z,26.97
2019-06-10T11:26:49.860Z,26.94
2019-06-10T11:27:48.986Z,26.75
2019-06-10T11:28:49.471Z,26.80
2019-06-10T11:29:48.424Z,26.77
2019-06-10T11:30:49.327Z,26.89
2019-06-10T11:31:48.488Z,26.77
2019-06-10T11:32:48.241Z,26.91
2019-06-10T11:33:48.693Z,26.97
2019-06-10T11:34:48.075Z,26.92
2019-06-10T11:35:48.786Z,26.91
2019-06-10T11:36:48.014Z,26.88
2019-06-10T11:37:48.881Z,27.21
2019-06-10T11:38:48.591Z,27.94
2019-06-10T11:39:48.132Z,28.36
2019-06-10T11:40:47.652Z,29.16
2019-06-10T11:41:48.107Z,29.80
2019-06-10T11:42:48.348Z,29.43
2019-06-10T11:43:48.278Z,29.24
2019-06-10T11:44:48.327Z,29.24
2019-06-10T11:45:52.376Z,28.41
2019-06-10T11:46:47.227Z,28.55
2019-06-10T11:47:47.153Z,28.46
2019-06-10T11:48:47.091Z,29.04
2019-06-10T11:49:47.034Z,29.27
2019-06-10T11:50:47.130Z,29.16
2019-06-10T11:51:47.167Z,29.08
2019-06-10T11:52:47.542Z,29.04
2019-06-10T11:53:47.453Z,29.04
2019-06-10T11:54:55.818Z,29.33
2019-06-10T11:55:47.609Z,29.43
2019-06-10T11:56:47.653Z,29.06
2019-06-10T11:57:47.770Z,28.88
2019-06-10T11:58:46.416Z,28.86
2019-06-10T11:59:46.341Z,28.76
2019-06-10T12:00:46.278Z,28.67
2019-06-10T12:01:46.203Z,28.77
2019-06-10T12:02:46.142Z,28.92
2019-06-10T12:03:46.066Z,28.41
2019-06-10T12:04:46.005Z,28.14
2019-06-10T12:05:45.942Z,27.90
2019-06-10T12:06:45.867Z,27.97
2019-06-10T12:07:45.816Z,27.93
2019-06-10T12:08:45.729Z,28.12
2019-06-10T12:09:45.667Z,28.19
2019-06-10T12:10:45.601Z,28.46
2019-06-10T12:11:45.537Z,28.61
2019-06-10T12:12:45.456Z,28.80
2019-06-10T12:13:45.394Z,29.00
2019-06-10T12:14:45.329Z,28.98
2019-06-10T12:16:20.871Z,29.02
2019-06-10T12:17:51.090Z,29.09
2019-06-10T12:18:45.055Z,29.11
2019-06-10T12:19:44.980Z,28.95
2019-06-10T12:20:44.919Z,28.95
2019-06-10T12:21:44.844Z,29.09
2019-06-10T12:22:44.783Z,29.15
2019-06-10T12:23:44.719Z,28.37
2019-06-10T12:24:44.644Z,28.29
2019-06-10T12:25:47.769Z,28.27
2019-06-10T12:26:44.521Z,28.11
2019-06-10T12:27:44.432Z,27.99
2019-06-10T12:28:44.370Z,27.90
2019-06-10T12:29:44.313Z,27.88
2019-06-10T12:30:44.231Z,27.77
2019-06-10T12:31:44.158Z,27.99
2019-06-10T12:32:44.095Z,28.04
2019-06-10T12:33:44.031Z,28.17
2019-06-10T12:34:46.185Z,28.33
2019-06-10T12:35:43.883Z,28.48
2019-06-10T12:36:43.821Z,28.55
2019-06-10T12:37:43.746Z,28.51
2019-06-10T12:38:43.783Z,28.48
2019-06-10T12:39:43.621Z,28.49
2019-06-10T12:40:43.546Z,28.24
2019-06-10T12:41:43.520Z,28.24
2019-06-10T12:42:43.410Z,28.07
2019-06-10T12:43:43.563Z,28.04
2019-06-10T12:44:43.271Z,28.18
2019-06-10T12:45:43.884Z,28.30
2019-06-10T12:46:43.359Z,28.12
2019-06-10T12:47:43.058Z,28.31
2019-06-10T12:48:42.996Z,28.43
2019-06-10T12:49:42.923Z,28.52
2019-06-10T12:50:43.014Z,28.55
2019-06-10T12:51:42.784Z,28.52
2019-06-10T12:52:42.721Z,28.55
2019-06-10T12:53:43.138Z,28.71